Time;durP1;ratioP1;P1;durP2;ratioP2;P2;SDS_P1;SDS_P2;PMS_P1;PMS_P2;Temp;Humidity;BMP_temperature;BMP_pressure;BME280_temperature;BME280_humidity;BME280_pressure;Samples;Min_cycle;Max_cycle;Signal;HPM_P1;HPM_P2
2023/01/16 00:00:20;;;;;;;2.90;2.80;;;8.00;99.90;;;;;;5051906;28;20455;-64
2023/01/16 00:02:45;;;;;;;3.27;3.17;;;8.10;99.90;;;;;;5055470;28;20181;-64
2023/01/16 00:05:11;;;;;;;3.43;3.13;;;8.10;99.90;;;;;;5052568;28;20439;-69
2023/01/16 00:07:37;;;;;;;3.10;2.90;;;8.20;99.90;;;;;;5052485;28;20267;-64
2023/01/16 00:10:04;;;;;;;3.40;3.10;;;7.80;99.90;;;;;;5053825;28;20184;-64
2023/01/16 00:12:29;;;;;;;3.50;3.20;;;8.00;99.90;;;;;;5052771;28;20546;-63
2023/01/16 00:14:55;;;;;;;3.57;3.27;;;8.00;99.90;;;;;;5055153;28;20390;-64
2023/01/16 00:17:21;;;;;;;3.57;3.23;;;7.90;99.90;;;;;;5033672;28;20224;-64
2023/01/16 00:19:46;;;;;;;3.43;3.23;;;8.00;99.90;;;;;;5041243;28;20180;-64
2023/01/16 00:22:13;;;;;;;3.10;2.87;;;7.90;99.90;;;;;;5054011;28;20174;-70
2023/01/16 00:24:39;;;;;;;3.10;2.90;;;7.70;99.90;;;;;;5053334;28;20218;-64
2023/01/16 00:27:05;;;;;;;3.23;2.53;;;7.70;99.90;;;;;;5051241;28;21116;-64
2023/01/16 00:29:30;;;;;;;2.93;2.83;;;7.80;99.90;;;;;;5051658;28;20185;-64
2023/01/16 00:31:56;;;;;;;3.20;3.00;;;7.90;99.90;;;;;;5053525;28;20192;-64
2023/01/16 00:34:22;;;;;;;3.10;2.90;;;7.80;99.90;;;;;;5052649;28;20176;-64
2023/01/16 00:36:47;;;;;;;3.20;3.00;;;7.70;99.90;;;;;;5053837;28;20212;-64
2023/01/16 00:39:13;;;;;;;3.00;2.80;;;7.60;99.90;;;;;;5052338;28;20676;-69
2023/01/16 00:41:39;;;;;;;2.70;2.60;;;7.70;99.90;;;;;;5052967;28;20596;-64
2023/01/16 00:44:04;;;;;;;2.73;2.63;;;7.80;99.90;;;;;;5053547;28;20239;-64
2023/01/16 00:46:30;;;;;;;2.50;2.40;;;7.80;99.90;;;;;;5052324;28;20185;-64
2023/01/16 00:48:56;;;;;;;3.17;3.07;;;7.90;99.90;;;;;;5053098;28;20181;-64
2023/01/16 00:51:22;;;;;;;2.80;2.60;;;8.00;99.90;;;;;;5053527;28;20411;-64
2023/01/16 00:53:48;;;;;;;2.63;2.43;;;7.60;99.90;;;;;;5051770;28;20439;-64
2023/01/16 00:56:14;;;;;;;2.37;2.27;;;7.70;99.90;;;;;;5034765;28;20474;-69
2023/01/16 00:58:39;;;;;;;2.50;2.40;;;7.70;99.90;;;;;;5052857;28;20170;-64
2023/01/16 01:01:06;;;;;;;2.70;2.60;;;7.70;99.90;;;;;;5054416;28;20580;-64
2023/01/16 01:03:31;;;;;;;2.30;2.23;;;7.70;99.90;;;;;;5052272;28;20202;-64
2023/01/16 01:05:57;;;;;;;2.50;2.40;;;7.60;99.90;;;;;;5051095;28;20431;-64
2023/01/16 01:08:23;;;;;;;2.50;2.40;;;7.70;99.90;;;;;;5050976;28;20184;-64
2023/01/16 01:10:49;;;;;;;2.33;2.27;;;7.80;99.90;;;;;;5052689;28;20479;-65
2023/01/16 01:13:14;;;;;;;2.40;2.33;;;7.80;99.90;;;;;;5052662;28;20188;-69
2023/01/16 01:15:40;;;;;;;2.97;2.77;;;7.80;99.90;;;;;;5052154;28;20655;-65
2023/01/16 01:18:06;;;;;;;2.60;2.50;;;7.90;99.90;;;;;;5053939;28;20204;-65
2023/01/16 01:20:32;;;;;;;2.30;2.20;;;7.80;99.90;;;;;;5050503;28;20435;-65
2023/01/16 01:22:58;;;;;;;3.07;2.97;;;7.80;99.90;;;;;;5050968;28;20180;-65
2023/01/16 01:25:24;;;;;;;3.30;3.10;;;7.80;99.90;;;;;;5051579;28;20897;-64
2023/01/16 01:27:50;;;;;;;2.77;2.60;;;7.90;99.90;;;;;;5052429;28;20192;-65
2023/01/16 01:30:16;;;;;;;3.33;3.00;;;7.90;99.90;;;;;;5049176;28;20935;-65
2023/01/16 01:32:42;;;;;;;2.80;2.70;;;7.80;99.90;;;;;;5036040;28;20823;-65
2023/01/16 01:35:08;;;;;;;2.77;2.70;;;7.90;99.90;;;;;;5052768;28;20507;-65
2023/01/16 01:37:35;;;;;;;2.60;2.50;;;7.90;99.90;;;;;;5048671;28;20918;-65
2023/01/16 01:40:01;;;;;;;2.40;2.40;;;7.90;99.90;;;;;;5048705;28;20428;-65
2023/01/16 01:42:42;;;;;;;2.70;2.60;;;7.80;99.90;;;;;;5046625;28;20473;-65
2023/01/16 01:45:25;;;;;;;4.03;2.87;;;7.80;99.90;;;;;;5052459;28;20443;-65
2023/01/16 01:48:12;;;;;;;2.70;2.70;;;7.70;99.90;;;;;;5050217;28;20442;-65
2023/01/16 01:51:07;;;;;;;3.00;2.80;;;7.70;99.90;;;;;;5050108;28;20447;-65
2023/01/16 01:53:48;;;;;;;2.87;2.67;;;7.70;99.90;;;;;;5039315;28;20831;-65
2023/01/16 01:56:23;;;;;;;2.60;2.50;;;7.80;99.90;;;;;;5051610;28;20458;-65
2023/01/16 01:58:54;;;;;;;2.60;2.40;;;7.80;99.90;;;;;;5050386;28;20431;-65
2023/01/16 02:01:20;;;;;;;2.80;2.60;;;7.80;99.90;;;;;;5050095;28;20427;-65
2023/01/16 02:03:56;;;;;;;2.63;2.40;;;7.80;99.90;;;;;;5052223;28;20767;-65
2023/01/16 02:06:30;;;;;;;2.90;2.70;;;7.90;99.90;;;;;;5050032;28;20272;-70
2023/01/16 02:08:56;;;;;;;2.90;2.80;;;7.90;99.90;;;;;;5034898;28;20431;-65
2023/01/16 02:11:36;;;;;;;3.00;2.80;;;8.00;99.90;;;;;;5050595;28;20439;-65
2023/01/16 02:14:07;;;;;;;2.77;2.60;;;8.00;99.90;;;;;;5050506;28;20191;-65
2023/01/16 02:19:38;;;;;;;2.73;2.53;;;8.00;99.90;;;;;;5051002;28;20905;-70
2023/01/16 02:22:34;;;;;;;2.97;2.77;;;8.10;99.90;;;;;;5050938;28;20423;-65
2023/01/16 02:25:25;;;;;;;3.07;2.80;;;8.00;99.90;;;;;;5051378;28;20942;-65
2023/01/16 02:27:51;;;;;;;3.13;2.93;;;8.00;99.90;;;;;;5048520;28;20779;-65
2023/01/16 02:30:36;;;;;;;3.77;2.63;;;8.00;99.90;;;;;;5051402;28;20409;-65
2023/01/16 02:33:16;;;;;;;2.40;2.30;;;8.10;99.90;;;;;;5053014;28;20255;-65
2023/01/16 02:36:00;;;;;;;2.63;2.40;;;7.90;99.90;;;;;;5051020;28;20431;-65
2023/01/16 02:38:50;;;;;;;2.70;2.50;;;8.00;99.90;;;;;;5048196;28;20445;-65
2023/01/16 02:41:26;;;;;;;3.30;2.60;;;8.00;99.90;;;;;;5050450;28;20499;-65
2023/01/16 02:44:03;;;;;;;3.00;2.80;;;8.00;99.90;;;;;;5050003;28;20473;-66
2023/01/16 02:46:46;;;;;;;3.20;3.00;;;8.10;99.90;;;;;;5052120;28;20412;-65
2023/01/16 02:49:19;;;;;;;2.93;2.70;;;8.20;99.90;;;;;;5050554;28;20915;-65
2023/01/16 02:51:50;;;;;;;3.03;2.83;;;8.20;99.90;;;;;;5051486;28;20494;-65
2023/01/16 02:54:23;;;;;;;3.13;2.97;;;8.20;99.90;;;;;;5051398;28;20452;-65
2023/01/16 02:56:59;;;;;;;2.70;2.60;;;8.10;99.90;;;;;;5052492;28;20460;-65
2023/01/16 02:59:27;;;;;;;2.90;2.67;;;8.00;99.90;;;;;;5049660;28;20851;-65
2023/01/16 03:01:56;;;;;;;2.63;2.43;;;7.90;99.90;;;;;;5052297;28;20530;-64
2023/01/16 03:04:51;;;;;;;3.30;2.30;;;7.80;99.90;;;;;;5058068;28;20400;-65
2023/01/16 03:07:29;;;;;;;3.03;2.10;;;7.90;99.90;;;;;;5039364;28;20444;-65
2023/01/16 03:10:03;;;;;;;2.60;2.40;;;7.90;99.90;;;;;;5058958;28;20775;-65
2023/01/16 03:13:08;;;;;;;2.10;2.00;;;7.90;99.90;;;;;;5057117;28;20435;-65
2023/01/16 03:15:50;;;;;;;3.90;2.43;;;7.70;99.90;;;;;;5057199;28;20429;-65
2023/01/16 03:18:49;;;;;;;2.33;2.20;;;7.70;99.90;;;;;;5058032;28;20480;-65
2023/01/16 03:21:39;;;;;;;2.87;2.77;;;7.80;99.90;;;;;;5041201;28;20740;-65
2023/01/16 03:24:31;;;;;;;2.50;2.50;;;7.80;99.90;;;;;;5057797;28;20752;-65
2023/01/16 03:27:13;;;;;;;2.83;2.63;;;7.60;99.90;;;;;;5056882;28;20434;-65
2023/01/16 03:29:47;;;;;;;2.20;2.20;;;7.70;99.90;;;;;;5057066;28;20403;-65
2023/01/16 03:32:42;;;;;;;2.20;2.10;;;7.80;99.90;;;;;;5058745;28;20731;-65
2023/01/16 03:35:32;;;;;;;2.70;2.50;;;7.60;99.90;;;;;;5040334;28;20417;-65
2023/01/16 03:38:04;;;;;;;2.10;2.10;;;7.70;99.90;;;;;;5057582;28;20516;-65
2023/01/16 03:40:35;;;;;;;2.10;2.10;;;7.60;99.90;;;;;;5057023;28;20447;-65
2023/01/16 03:43:01;;;;;;;2.47;2.37;;;7.70;99.90;;;;;;5039806;28;20447;-65
2023/01/16 03:45:52;;;;;;;2.20;2.20;;;7.70;99.90;;;;;;5056585;28;20465;-65
2023/01/16 03:48:42;;;;;;;2.63;2.50;;;7.70;99.90;;;;;;5057812;28;20430;-65
2023/01/16 03:51:13;;;;;;;2.27;2.20;;;7.60;99.90;;;;;;5057772;28;20451;-65
2023/01/16 03:53:48;;;;;;;2.60;2.40;;;7.70;99.90;;;;;;5055573;28;20545;-65
2023/01/16 03:56:17;;;;;;;2.30;2.20;;;7.50;99.90;;;;;;5058634;28;20495;-65
2023/01/16 03:58:47;;;;;;;2.13;2.03;;;7.50;99.90;;;;;;5055656;28;20675;-65
2023/01/16 04:01:22;;;;;;;2.60;2.40;;;7.40;99.90;;;;;;5057040;28;20755;-65
2023/01/16 04:04:01;;;;;;;2.17;2.07;;;7.50;99.90;;;;;;5058218;28;20434;-65
2023/01/16 04:07:05;;;;;;;2.23;2.13;;;7.50;99.90;;;;;;5057610;28;20417;-67
2023/01/16 04:09:39;;;;;;;2.40;2.30;;;7.50;99.90;;;;;;5035771;28;20455;-67
2023/01/16 04:12:06;;;;;;;2.30;2.20;;;7.30;99.90;;;;;;5050064;28;20421;-67
2023/01/16 04:14:34;;;;;;;2.70;2.60;;;7.40;99.90;;;;;;5051693;28;20410;-67
2023/01/16 04:17:01;;;;;;;2.70;2.60;;;7.40;99.90;;;;;;5055387;28;20450;-67
2023/01/16 04:19:30;;;;;;;2.63;2.43;;;7.40;99.90;;;;;;5053256;28;20402;-67
2023/01/16 04:21:55;;;;;;;2.67;2.47;;;7.50;99.90;;;;;;5037246;28;20925;-67
2023/01/16 04:24:21;;;;;;;2.53;2.37;;;7.50;99.90;;;;;;5055029;28;20466;-67
2023/01/16 04:26:47;;;;;;;3.00;2.80;;;7.50;99.90;;;;;;5053358;28;20173;-67
2023/01/16 04:29:13;;;;;;;2.93;2.80;;;7.60;99.90;;;;;;5054847;28;20207;-67
2023/01/16 04:31:39;;;;;;;2.70;2.60;;;7.60;99.90;;;;;;5054230;28;20485;-67
2023/01/16 04:34:04;;;;;;;3.10;2.83;;;7.70;99.90;;;;;;5055120;28;20609;-67
2023/01/16 04:36:31;;;;;;;4.53;2.80;;;7.70;99.90;;;;;;5054099;28;20208;-67
2023/01/16 04:38:57;;;;;;;2.80;2.60;;;7.80;99.90;;;;;;5053631;28;20195;-67
2023/01/16 04:41:38;;;;;;;3.77;3.43;;;7.80;99.90;;;;;;5054639;28;20502;-67
2023/01/16 04:44:09;;;;;;;5.40;5.23;;;7.80;99.90;;;;;;5054916;28;20400;-67
2023/01/16 04:46:37;;;;;;;3.10;2.80;;;7.80;99.90;;;;;;5053040;28;20424;-67
2023/01/16 04:49:04;;;;;;;1.80;1.70;;;7.80;99.90;;;;;;5055137;28;20485;-67
2023/01/16 04:51:30;;;;;;;5.80;5.47;;;7.70;99.90;;;;;;5054127;28;20484;-67
2023/01/16 04:53:56;;;;;;;2.47;2.27;;;7.70;99.90;;;;;;5054874;28;20450;-67
2023/01/16 04:56:22;;;;;;;2.93;1.40;;;7.60;99.90;;;;;;5054148;28;20450;-67
2023/01/16 04:58:49;;;;;;;2.60;1.90;;;7.60;99.90;;;;;;5054015;28;20392;-67
2023/01/16 05:01:17;;;;;;;5.47;4.97;;;7.70;99.90;;;;;;5053397;28;20188;-67
2023/01/16 05:03:43;;;;;;;1.70;1.20;;;7.70;99.90;;;;;;5036151;28;20423;-67
2023/01/16 05:06:08;;;;;;;1.07;0.97;;;7.80;99.90;;;;;;5054618;28;20411;-66
2023/01/16 05:08:34;;;;;;;4.40;4.30;;;7.70;99.90;;;;;;5052636;28;20177;-66
2023/01/16 05:11:01;;;;;;;3.47;3.27;;;7.60;99.90;;;;;;5054475;28;20181;-66
2023/01/16 05:13:28;;;;;;;2.50;2.07;;;7.50;99.90;;;;;;5053802;28;20273;-66
2023/01/16 05:15:54;;;;;;;3.53;1.83;;;7.60;99.90;;;;;;5052783;28;20421;-66
2023/01/16 05:18:19;;;;;;;2.37;1.90;;;7.60;99.90;;;;;;5036547;28;20425;-66
2023/01/16 05:20:45;;;;;;;3.97;3.80;;;7.50;99.90;;;;;;5053630;28;20926;-66
2023/01/16 05:23:11;;;;;;;2.20;2.20;;;7.40;99.90;;;;;;5053321;28;20180;-66
2023/01/16 05:25:38;;;;;;;2.37;2.27;;;7.30;99.90;;;;;;5051282;28;20212;-67
2023/01/16 05:28:04;;;;;;;5.20;5.00;;;7.30;99.90;;;;;;5052959;28;20207;-66
2023/01/16 05:30:32;;;;;;;1.70;1.60;;;7.20;99.90;;;;;;5053166;28;20398;-70
2023/01/16 05:32:58;;;;;;;2.17;2.07;;;7.40;99.90;;;;;;5053709;28;20497;-66
2023/01/16 05:35:24;;;;;;;5.23;4.77;;;7.50;99.90;;;;;;5052849;28;20507;-67
2023/01/16 05:37:50;;;;;;;4.00;3.70;;;7.60;99.90;;;;;;5051779;28;20672;-67
2023/01/16 05:40:16;;;;;;;2.10;1.50;;;7.70;99.90;;;;;;5053978;28;20472;-66
2023/01/16 05:42:43;;;;;;;3.60;1.40;;;7.70;99.90;;;;;;5052392;28;20168;-66
2023/01/16 05:45:09;;;;;;;3.70;3.50;;;7.80;99.90;;;;;;5053538;28;20940;-66
2023/01/16 05:47:35;;;;;;;3.27;1.57;;;7.80;99.90;;;;;;5053066;28;20411;-66
2023/01/16 05:50:01;;;;;;;1.77;1.43;;;7.80;99.90;;;;;;5050286;28;20986;-65
2023/01/16 05:52:27;;;;;;;1.90;1.90;;;7.80;99.90;;;;;;5052152;28;20689;-66
2023/01/16 05:54:54;;;;;;;3.30;3.20;;;7.60;99.90;;;;;;5049981;28;20407;-66
2023/01/16 05:57:20;;;;;;;1.87;1.80;;;7.50;99.90;;;;;;5047303;28;20492;-66
2023/01/16 05:59:52;;;;;;;2.63;2.40;;;7.60;99.90;;;;;;5039513;28;20443;-66
2023/01/16 06:02:19;;;;;;;2.27;2.17;;;7.70;99.90;;;;;;5052404;28;20511;-66
2023/01/16 06:04:45;;;;;;;2.40;2.30;;;7.70;99.90;;;;;;5050087;28;20416;-66
2023/01/16 06:07:12;;;;;;;2.70;1.40;;;7.80;99.90;;;;;;5047780;28;20459;-66
2023/01/16 06:09:37;;;;;;;1.70;1.60;;;7.80;99.90;;;;;;5039935;28;20431;-66
2023/01/16 06:12:04;;;;;;;1.30;1.20;;;7.90;99.90;;;;;;5045994;28;20539;-66
2023/01/16 06:14:29;;;;;;;2.50;2.40;;;7.80;99.90;;;;;;5036800;28;20634;-66
2023/01/16 06:16:55;;;;;;;2.70;2.60;;;7.80;99.90;;;;;;5047482;28;20462;-67
2023/01/16 06:19:21;;;;;;;2.30;2.30;;;7.90;99.90;;;;;;5043313;28;20463;-66
2023/01/16 06:21:46;;;;;;;1.63;1.40;;;7.80;99.90;;;;;;5049970;28;20214;-66
2023/01/16 06:24:12;;;;;;;1.80;1.80;;;7.80;99.90;;;;;;5052976;28;20223;-66
2023/01/16 06:26:38;;;;;;;2.37;2.27;;;7.70;99.90;;;;;;5047063;28;20176;-67
2023/01/16 06:29:03;;;;;;;2.40;2.20;;;7.50;99.90;;;;;;5024444;28;20252;-68
2023/01/16 06:31:30;;;;;;;2.47;2.37;;;7.70;99.90;;;;;;5039368;28;20205;-65
2023/01/16 06:33:56;;;;;;;2.70;2.50;;;7.60;99.90;;;;;;5037989;28;20191;-65
2023/01/16 06:36:21;;;;;;;2.57;2.47;;;7.50;99.90;;;;;;5050224;28;20454;-65
2023/01/16 06:38:47;;;;;;;2.40;2.20;;;7.40;99.90;;;;;;5032453;28;20563;-65
2023/01/16 06:41:13;;;;;;;2.73;2.53;;;7.30;99.90;;;;;;5052752;28;20220;-65
2023/01/16 06:43:38;;;;;;;4.90;4.60;;;7.40;99.90;;;;;;5052498;28;20182;-65
2023/01/16 06:46:04;;;;;;;3.60;3.30;;;7.50;99.90;;;;;;5049860;28;20222;-68
2023/01/16 06:48:31;;;;;;;3.00;2.80;;;7.60;99.90;;;;;;5052976;28;20172;-68
2023/01/16 06:50:59;;;;;;;3.00;2.70;;;7.50;99.90;;;;;;5050282;28;20237;-68
2023/01/16 06:53:25;;;;;;;2.93;2.83;;;7.60;99.90;;;;;;5049605;28;20498;-67
2023/01/16 06:55:50;;;;;;;2.93;2.17;;;7.50;99.90;;;;;;5051973;28;20461;-67
2023/01/16 06:58:16;;;;;;;2.40;2.20;;;7.30;99.90;;;;;;5052663;28;20462;-67
2023/01/16 07:00:42;;;;;;;4.20;3.80;;;7.40;99.90;;;;;;5048098;28;20401;-68
2023/01/16 07:03:08;;;;;;;3.10;3.00;;;7.40;99.90;;;;;;5032604;28;20625;-67
2023/01/16 07:05:34;;;;;;;3.30;3.10;;;7.40;99.90;;;;;;5040736;28;20291;-69
2023/01/16 07:08:00;;;;;;;5.77;5.37;;;7.40;99.90;;;;;;5051169;28;20414;-67
2023/01/16 07:10:26;;;;;;;2.30;2.03;;;7.40;99.90;;;;;;5052428;28;20449;-70
2023/01/16 07:12:52;;;;;;;4.50;4.20;;;7.80;99.90;;;;;;5050451;28;20581;-68
2023/01/16 07:23:45;;;;;;;3.73;3.53;;;10.00;99.90;;;;;;5051982;28;20403;-72
2023/01/16 07:26:14;;;;;;;2.80;2.70;;;10.40;99.90;;;;;;5052144;28;20496;-71
2023/01/16 07:28:40;;;;;;;2.60;2.50;;;10.60;99.90;;;;;;5051148;28;20410;-70
2023/01/16 07:31:07;;;;;;;3.13;2.40;;;10.60;99.90;;;;;;5051062;28;20460;-69
2023/01/16 07:33:33;;;;;;;4.60;4.40;;;10.50;99.90;;;;;;5050613;28;20776;-69
2023/01/16 07:35:59;;;;;;;2.80;2.60;;;10.70;99.90;;;;;;5061386;28;20417;-70
2023/01/16 07:38:25;;;;;;;3.47;2.87;;;10.30;99.90;;;;;;5046722;28;20450;-70
2023/01/16 07:40:50;;;;;;;6.57;3.37;;;10.30;99.90;;;;;;5037003;28;20466;-70
2023/01/16 07:43:16;;;;;;;3.80;2.80;;;10.00;99.90;;;;;;5050683;28;20545;-70
2023/01/16 07:45:43;;;;;;;5.83;5.53;;;10.10;99.90;;;;;;5048719;28;20170;-70
2023/01/16 07:48:09;;;;;;;4.23;3.93;;;10.00;99.90;;;;;;5051259;28;20187;-70
2023/01/16 07:50:36;;;;;;;3.13;3.00;;;10.40;99.90;;;;;;5055822;28;20435;-69
2023/01/16 07:53:02;;;;;;;4.27;3.53;;;10.60;99.90;;;;;;5053254;28;20852;-68
2023/01/16 07:55:27;;;;;;;3.53;3.30;;;10.70;99.90;;;;;;5055386;28;20494;-67
2023/01/16 07:57:53;;;;;;;3.07;2.87;;;9.80;99.90;;;;;;5053866;28;20190;-67
2023/01/16 08:00:19;;;;;;;5.47;4.93;;;9.30;99.90;;;;;;5055976;28;20232;-67
2023/01/16 08:02:44;;;;;;;3.00;1.70;;;9.00;99.90;;;;;;5054972;28;20179;-66
2023/01/16 08:05:10;;;;;;;5.10;4.70;;;8.90;99.90;;;;;;5055092;28;20431;-66
2023/01/16 08:07:36;;;;;;;3.87;3.77;;;8.80;99.90;;;;;;5058044;28;20190;-66
2023/01/16 08:10:04;;;;;;;2.27;2.07;;;8.80;99.90;;;;;;5057324;28;20493;-67
2023/01/16 08:12:29;;;;;;;5.17;4.80;;;8.60;99.90;;;;;;5074748;28;20414;-67
2023/01/16 08:14:55;;;;;;;3.33;3.13;;;8.30;99.90;;;;;;5068772;28;20955;-68
2023/01/16 08:17:21;;;;;;;4.13;2.07;;;8.30;99.90;;;;;;5051791;28;20201;-67
2023/01/16 08:19:46;;;;;;;2.00;1.90;;;8.10;99.90;;;;;;5052180;28;20534;-68
2023/01/16 08:22:12;;;;;;;2.67;2.47;;;8.10;99.90;;;;;;5052841;28;20185;-67
2023/01/16 08:24:38;;;;;;;3.80;3.50;;;8.10;99.90;;;;;;5053473;28;20231;-67
2023/01/16 08:27:03;;;;;;;2.30;2.20;;;8.20;99.90;;;;;;5054322;28;20629;-67
2023/01/16 08:29:30;;;;;;;2.10;2.00;;;8.20;99.90;;;;;;5060658;28;20216;-67
2023/01/16 08:31:55;;;;;;;2.03;1.93;;;8.20;99.90;;;;;;5053541;28;20176;-67
2023/01/16 08:34:21;;;;;;;4.60;3.60;;;8.00;99.90;;;;;;5036387;28;21043;-67
2023/01/16 08:36:47;;;;;;;2.70;2.60;;;8.00;99.90;;;;;;5052336;28;20664;-67
2023/01/16 08:39:12;;;;;;;3.07;2.87;;;8.00;99.90;;;;;;5052451;28;20280;-67
2023/01/16 08:52:44;;;;;;;3.27;2.60;;;7.60;99.90;;;;;;5033979;28;20399;-68
2023/01/16 08:55:09;;;;;;;5.93;2.60;;;7.70;99.90;;;;;;5036451;28;20522;-68
2023/01/16 08:57:35;;;;;;;3.00;2.90;;;7.70;99.90;;;;;;5043564;28;21025;-68
2023/01/16 09:00:02;;;;;;;3.00;2.90;;;7.50;99.90;;;;;;5048193;28;20183;-68
2023/01/16 09:02:28;;;;;;;5.50;5.10;;;7.60;99.90;;;;;;5052705;28;20231;-71
2023/01/16 09:04:54;;;;;;;2.43;2.23;;;7.60;99.90;;;;;;5049290;28;20423;-68
2023/01/16 09:07:21;;;;;;;3.20;3.10;;;7.70;99.90;;;;;;5049987;28;20419;-69
2023/01/16 09:09:47;;;;;;;1.83;1.60;;;7.60;99.90;;;;;;5032234;28;20445;-69
2023/01/16 09:14:58;;;;;;;2.90;2.80;;;7.70;99.90;;;;;;5049818;28;20403;-69
2023/01/16 09:17:25;;;;;;;3.60;1.40;;;7.80;99.90;;;;;;5050061;28;20451;-69
2023/01/16 09:19:51;;;;;;;5.30;4.87;;;7.80;99.90;;;;;;5036611;28;20535;-75
2023/01/16 09:22:17;;;;;;;3.03;2.80;;;7.80;99.90;;;;;;5052734;28;20423;-71
2023/01/16 09:24:44;;;;;;;4.70;2.07;;;7.90;99.90;;;;;;5049449;28;21118;-68
2023/01/16 09:27:10;;;;;;;4.40;4.20;;;7.80;99.90;;;;;;5048644;28;20923;-71
2023/01/16 09:29:35;;;;;;;2.97;2.87;;;7.80;99.90;;;;;;5043345;28;20460;-71
2023/01/16 09:32:07;;;;;;;2.70;2.50;;;7.80;99.90;;;;;;5042532;28;20946;-69
2023/01/16 09:34:34;;;;;;;2.70;2.33;;;7.70;99.90;;;;;;5048126;28;20202;-68
2023/01/16 09:37:00;;;;;;;2.17;2.07;;;7.60;99.90;;;;;;5063075;28;20467;-69
2023/01/16 09:39:26;;;;;;;3.87;3.67;;;7.70;99.90;;;;;;5048141;28;20414;-69
2023/01/16 09:45:11;;;;;;;5.20;4.90;;;7.80;99.90;;;;;;5044950;28;20232;-69
2023/01/16 09:47:39;;;;;;;2.07;1.97;;;7.70;99.90;;;;;;5041129;28;20531;-71
2023/01/16 09:50:36;;;;;;;3.77;3.57;;;7.60;99.90;;;;;;5029178;28;20947;-69
2023/01/16 09:58:46;;;;;;;1.93;1.83;;;7.50;99.90;;;;;;5054248;28;20509;-73
2023/01/16 10:01:22;;;;;;;3.30;3.00;;;7.60;99.90;;;;;;5050116;28;20530;-72
2023/01/16 10:03:47;;;;;;;3.27;2.97;;;7.60;99.90;;;;;;5049187;28;20435;-74
2023/01/16 10:06:42;;;;;;;2.90;2.80;;;7.40;99.90;;;;;;5049424;28;20484;-72
2023/01/16 10:09:26;;;;;;;1.93;1.83;;;7.40;99.90;;;;;;5048087;28;20306;-72
2023/01/16 10:11:59;;;;;;;2.60;2.40;;;7.30;99.90;;;;;;5047759;28;20492;-72
2023/01/16 10:14:51;;;;;;;5.07;4.87;;;7.30;99.90;;;;;;5049519;28;20420;-75
2023/01/16 10:17:40;;;;;;;3.00;2.90;;;7.10;99.90;;;;;;5036307;28;20810;-68
2023/01/16 10:20:15;;;;;;;2.07;1.97;;;7.00;99.90;;;;;;5048280;28;20973;-69
2023/01/16 10:22:53;;;;;;;4.87;4.73;;;6.80;99.90;;;;;;5048970;28;20469;-69
2023/01/16 10:25:26;;;;;;;2.03;1.93;;;6.90;99.90;;;;;;5049093;28;20449;-68
2023/01/16 10:28:11;;;;;;;5.10;4.10;;;6.90;99.90;;;;;;5048831;28;20433;-69
2023/01/16 10:30:44;;;;;;;2.60;2.50;;;7.00;99.90;;;;;;5051537;28;20402;-68
2023/01/16 10:33:22;;;;;;;2.57;2.47;;;7.00;99.90;;;;;;5050658;28;20179;-68
2023/01/16 10:35:51;;;;;;;1.90;1.80;;;6.90;99.90;;;;;;5054006;28;20496;-68
2023/01/16 10:38:59;;;;;;;1.83;1.60;;;6.90;99.90;;;;;;5052577;28;20476;-68
2023/01/16 10:49:52;;;;;;;2.20;2.10;;;7.10;99.90;;;;;;5052013;28;20378;-69
2023/01/16 10:52:17;;;;;;;3.40;3.30;;;7.20;99.90;;;;;;5052296;28;20483;-68
2023/01/16 10:54:43;;;;;;;2.30;2.20;;;7.30;99.90;;;;;;5039088;28;20179;-68
2023/01/16 10:57:16;;;;;;;3.00;2.80;;;7.50;99.90;;;;;;5050581;28;20222;-68
2023/01/16 10:59:44;;;;;;;3.17;3.07;;;7.40;99.90;;;;;;5058276;28;20781;-68
2023/01/16 11:02:38;;;;;;;1.90;1.90;;;7.50;99.90;;;;;;5031444;28;20433;-70
2023/01/16 11:05:34;;;;;;;2.47;1.70;;;7.40;99.90;;;;;;5051556;28;20402;-70
2023/01/16 11:08:12;;;;;;;2.90;2.80;;;7.40;99.90;;;;;;5049047;28;20524;-71
2023/01/16 11:10:40;;;;;;;2.40;2.30;;;7.50;99.90;;;;;;5036915;28;20938;-71
2023/01/16 11:19:17;;;;;;;2.10;2.00;;;7.50;99.90;;;;;;5051720;28;20419;-72
2023/01/16 11:21:48;;;;;;;2.00;2.00;;;7.50;99.90;;;;;;5052494;28;20489;-73
2023/01/16 11:24:18;;;;;;;3.17;2.00;;;7.40;99.90;;;;;;5054724;28;20756;-71
2023/01/16 11:26:50;;;;;;;2.20;2.10;;;7.50;99.90;;;;;;5059273;28;20569;-72
2023/01/16 11:29:18;;;;;;;1.80;1.70;;;7.40;99.90;;;;;;5056150;28;20442;-72
2023/01/16 11:31:59;;;;;;;1.80;1.80;;;7.60;99.90;;;;;;5054805;28;20414;-71
2023/01/16 11:34:27;;;;;;;2.00;1.90;;;7.60;99.90;;;;;;5036388;28;20434;-71
2023/01/16 11:37:00;;;;;;;2.37;2.30;;;7.60;99.90;;;;;;5035498;28;20451;-72
2023/01/16 11:39:29;;;;;;;2.20;2.20;;;7.70;99.90;;;;;;5034942;28;20438;-72
2023/01/16 11:41:59;;;;;;;1.60;1.60;;;7.60;99.90;;;;;;5035297;28;20438;-69
2023/01/16 11:47:21;;;;;;;1.40;1.40;;;7.70;99.90;;;;;;5055605;28;20426;-68
2023/01/16 11:49:49;;;;;;;3.40;3.30;;;7.80;99.90;;;;;;5055244;28;20432;-70
2023/01/16 11:52:29;;;;;;;2.20;2.20;;;8.00;99.90;;;;;;5054589;28;20438;-70
2023/01/16 11:55:03;;;;;;;1.80;1.80;;;8.00;99.90;;;;;;5053779;28;20410;-70
2023/01/16 11:57:37;;;;;;;1.70;1.60;;;8.20;99.90;;;;;;5055601;28;20559;-70
2023/01/16 12:00:04;;;;;;;1.20;1.20;;;8.00;99.90;;;;;;5050274;28;20452;-69
2023/01/16 12:02:57;;;;;;;1.30;1.20;;;7.90;99.90;;;;;;5035925;28;20738;-67
2023/01/16 12:05:57;;;;;;;2.40;2.30;;;7.80;99.90;;;;;;5035646;28;20456;-69
2023/01/16 12:08:35;;;;;;;2.40;2.30;;;7.90;99.90;;;;;;5035362;28;20916;-69
2023/01/16 12:11:08;;;;;;;3.00;2.90;;;7.70;99.90;;;;;;5034660;28;20463;-69
2023/01/16 12:16:52;;;;;;;1.20;1.20;;;7.70;99.90;;;;;;5040102;28;20450;-67
2023/01/16 12:19:36;;;;;;;2.00;1.37;;;7.70;99.90;;;;;;5055868;28;20399;-68
2023/01/16 12:22:08;;;;;;;1.30;1.30;;;7.60;99.90;;;;;;5053524;28;20518;-68
2023/01/16 12:24:45;;;;;;;3.40;1.90;;;7.70;99.90;;;;;;5055172;28;20408;-67
2023/01/16 12:27:28;;;;;;;2.20;2.00;;;7.60;99.90;;;;;;5042776;28;20429;-65
2023/01/16 12:30:39;;;;;;;1.73;1.73;;;7.80;99.90;;;;;;5074090;28;20465;-70
2023/01/16 12:33:21;;;;;;;1.83;1.73;;;8.00;99.90;;;;;;5051925;28;20453;-75
2023/01/16 12:36:11;;;;;;;1.90;1.80;;;8.10;99.90;;;;;;5034143;28;20829;-67
2023/01/16 12:38:41;;;;;;;1.70;1.60;;;8.50;99.90;;;;;;5051141;28;21062;-68
2023/01/16 12:44:22;;;;;;;1.73;1.63;;;8.70;99.90;;;;;;5050587;28;20515;-68
2023/01/16 12:47:00;;;;;;;2.10;2.10;;;8.50;99.90;;;;;;5055019;28;20419;-68
2023/01/16 12:49:46;;;;;;;4.03;3.90;;;8.20;99.90;;;;;;5055008;28;20419;-68
2023/01/16 12:52:32;;;;;;;4.20;4.10;;;8.10;99.90;;;;;;5054245;28;20415;-68
2023/01/16 12:55:17;;;;;;;1.70;1.70;;;7.80;99.90;;;;;;5069480;28;20478;-67
2023/01/16 12:58:12;;;;;;;1.67;1.67;;;7.80;99.90;;;;;;5054579;28;20447;-67
2023/01/16 13:00:56;;;;;;;2.17;2.10;;;7.50;99.90;;;;;;5048911;28;20449;-68
2023/01/16 13:03:35;;;;;;;3.90;3.80;;;7.50;99.90;;;;;;5053233;28;20422;-68
2023/01/16 13:06:03;;;;;;;3.50;3.40;;;7.50;99.90;;;;;;5052497;28;20484;-69
2023/01/16 13:08:45;;;;;;;1.87;1.87;;;7.50;99.90;;;;;;5054034;28;20451;-69
2023/01/16 13:14:11;;;;;;;2.27;2.17;;;7.50;99.90;;;;;;5053583;28;20395;-68
2023/01/16 13:16:44;;;;;;;3.43;3.33;;;7.50;99.90;;;;;;5054220;28;20467;-68
2023/01/16 13:19:20;;;;;;;2.63;2.43;;;7.40;99.90;;;;;;5053928;28;20406;-68
2023/01/16 13:21:57;;;;;;;2.67;2.57;;;7.30;99.90;;;;;;5069698;28;20777;-68
2023/01/16 13:24:31;;;;;;;2.37;2.27;;;7.30;99.90;;;;;;5054025;28;20410;-69
2023/01/16 13:27:02;;;;;;;2.20;2.10;;;7.10;99.90;;;;;;5053522;28;20459;-68
2023/01/16 13:29:37;;;;;;;2.57;2.47;;;7.10;99.90;;;;;;5054157;28;20426;-68
2023/01/16 13:32:32;;;;;;;2.30;2.30;;;7.10;99.90;;;;;;5052100;28;20925;-67
2023/01/16 13:35:20;;;;;;;3.50;3.40;;;7.10;99.90;;;;;;5052311;28;20433;-68
2023/01/16 13:38:07;;;;;;;2.53;2.43;;;7.00;99.90;;;;;;5033733;28;20445;-68
2023/01/16 13:40:54;;;;;;;1.70;1.70;;;7.00;99.90;;;;;;5032432;28;20470;-68
2023/01/16 13:46:17;;;;;;;1.73;1.73;;;7.00;99.90;;;;;;5031707;28;20964;-68
2023/01/16 13:48:52;;;;;;;1.63;1.63;;;7.10;99.90;;;;;;5049066;28;20463;-68
2023/01/16 13:51:20;;;;;;;1.83;1.73;;;7.00;99.90;;;;;;5048743;28;20411;-68
2023/01/16 13:53:51;;;;;;;2.40;2.30;;;7.00;99.90;;;;;;5033655;28;20411;-67
2023/01/16 13:56:23;;;;;;;2.10;2.00;;;7.00;99.90;;;;;;5031770;28;20837;-68
2023/01/16 13:59:03;;;;;;;2.10;2.00;;;7.10;99.90;;;;;;5033381;28;20907;-68
2023/01/16 14:01:37;;;;;;;2.90;1.83;;;7.10;99.90;;;;;;5044929;28;20509;-68
2023/01/16 14:04:31;;;;;;;3.50;2.87;;;7.10;99.90;;;;;;5051347;28;20771;-68
2023/01/16 14:10:08;;;;;;;1.90;1.80;;;7.20;99.90;;;;;;5053587;28;20525;-69
2023/01/16 14:12:42;;;;;;;1.93;1.93;;;7.20;99.90;;;;;;5053424;28;20410;-68
2023/01/16 14:18:59;;;;;;;2.10;2.00;;;7.30;99.90;;;;;;5052810;28;20972;-67
2023/01/16 14:24:00;;;;;;;2.60;2.50;;;7.40;99.90;;;;;;5051997;28;20398;-68
2023/01/16 14:24:37;;;;;;;4.03;3.93;;;7.40;99.90;;;;;;5052683;28;20419;-68
2023/01/16 14:27:03;;;;;;;3.80;3.70;;;7.30;99.90;;;;;;5052461;28;20409;-68
2023/01/16 14:29:49;;;;;;;1.30;1.30;;;7.40;99.90;;;;;;5052756;28;20417;-68
2023/01/16 14:32:29;;;;;;;1.60;1.50;;;7.30;99.90;;;;;;5049682;28;20449;-68